Time;durP1;ratioP1;P1;durP2;ratioP2;P2;SDS_P1;SDS_P2;PMS_P1;PMS_P2;Temp;Humidity;BMP_temperature;BMP_pressure;BME280_temperature;BME280_humidity;BME280_pressure;Samples;Min_cycle;Max_cycle;Signal;HPM_P1;HPM_P2
2023/05/11 00:00:25;;;;;;;;;;;;;;;21.30;30.52;98465.78;5038485;28;1910;-76
2023/05/11 00:02:51;;;;;;;;;;;;;;;21.65;29.97;98469.16;5038356;28;1182;-76
2023/05/11 00:05:16;;;;;;;;;;;;;;;21.29;30.70;98466.16;5055090;28;1008;-75
2023/05/11 00:07:42;;;;;;;;;;;;;;;21.25;30.49;98469.06;5038612;28;900;-75
2023/05/11 00:10:08;;;;;;;;;;;;;;;21.50;30.07;98467.81;5055201;28;1031;-75
2023/05/11 00:12:33;;;;;;;;;;;;;;;21.66;30.32;98467.13;5054687;28;1136;-76
2023/05/11 00:14:59;;;;;;;;;;;;;;;21.88;29.96;98453.34;5054610;28;1029;-75
2023/05/11 00:17:24;;;;;;;;;;;;;;;22.33;29.28;98462.94;5065382;28;980;-77
2023/05/11 00:19:50;;;;;;;;;;;;;;;22.23;29.24;98463.16;5059315;28;1906;-75
2023/05/11 00:22:16;;;;;;;;;;;;;;;21.99;29.58;98456.75;5076160;28;1125;-76
2023/05/11 00:24:41;;;;;;;;;;;;;;;21.38;30.23;98463.59;5076762;28;935;-76
2023/05/11 00:27:07;;;;;;;;;;;;;;;21.40;30.20;98469.66;5075904;28;1665;-76
2023/05/11 00:29:32;;;;;;;;;;;;;;;21.52;30.27;98476.69;5075701;28;1181;-75
2023/05/11 00:31:58;;;;;;;;;;;;;;;21.44;30.15;98469.56;5077019;28;960;-75
2023/05/11 00:34:24;;;;;;;;;;;;;;;21.64;30.22;98472.41;5042758;28;1106;-77
2023/05/11 00:36:52;;;;;;;;;;;;;;;21.65;29.92;98474.81;5075547;28;953;-75
2023/05/11 00:39:18;;;;;;;;;;;;;;;21.47;30.60;98465.88;5075149;28;1898;-76
2023/05/11 00:41:43;;;;;;;;;;;;;;;21.90;29.90;98467.84;5075393;28;934;-75
2023/05/11 00:44:09;;;;;;;;;;;;;;;22.03;29.64;98465.97;5075569;28;908;-76
2023/05/11 00:46:35;;;;;;;;;;;;;;;22.62;28.88;98474.41;5075554;28;1371;-76
2023/05/11 00:49:00;;;;;;;;;;;;;;;22.29;28.87;98462.19;5042300;28;1693;-76
2023/05/11 00:51:26;;;;;;;;;;;;;;;21.81;29.71;98466.41;5057622;28;1078;-75
2023/05/11 00:53:52;;;;;;;;;;;;;;;21.39;30.21;98470.06;5057685;28;1197;-76
2023/05/11 00:56:18;;;;;;;;;;;;;;;21.50;30.47;98462.16;5017293;28;1231;-75
2023/05/11 00:58:44;;;;;;;;;;;;;;;21.56;30.29;98463.28;5001305;28;1120;-76
2023/05/11 01:01:10;;;;;;;;;;;;;;;21.66;29.76;98465.09;5001258;28;1915;-75
2023/05/11 01:03:36;;;;;;;;;;;;;;;21.73;30.09;98464.97;5000971;28;1030;-76
2023/05/11 01:06:07;;;;;;;;;;;;;;;21.41;30.69;98461.94;5017855;28;1003;-75
2023/05/11 01:08:38;;;;;;;;;;;;;;;21.43;30.40;98457.44;5017894;28;986;-75
2023/05/11 01:11:22;;;;;;;;;;;;;;;21.48;30.22;98462.59;4985103;28;1345;-76
2023/05/11 01:13:49;;;;;;;;;;;;;;;22.27;29.58;98458.97;5033902;28;1362;-75
2023/05/11 01:16:19;;;;;;;;;;;;;;;22.40;28.89;98452.66;4985354;28;1124;-76
2023/05/11 01:18:55;;;;;;;;;;;;;;;22.12;29.28;98457.69;5001510;28;1429;-76
2023/05/11 01:21:21;;;;;;;;;;;;;;;21.68;29.71;98462.63;5017662;28;1011;-76
2023/05/11 01:24:04;;;;;;;;;;;;;;;21.71;29.63;98461.78;4997483;28;1315;-76
2023/05/11 01:26:49;;;;;;;;;;;;;;;21.43;30.03;98468.75;5001095;28;1421;-75
2023/05/11 01:29:29;;;;;;;;;;;;;;;21.50;30.36;98473.47;5007511;28;1103;-75
2023/05/11 01:31:55;;;;;;;;;;;;;;;21.65;29.87;98469.16;4997599;28;1051;-76
2023/05/11 01:34:21;;;;;;;;;;;;;;;21.42;30.34;98467.16;5013673;28;1357;-76
2023/05/11 01:36:48;;;;;;;;;;;;;;;21.69;30.16;98464.22;5014140;28;987;-75
2023/05/11 01:39:13;;;;;;;;;;;;;;;21.51;30.36;98463.78;5013893;28;1902;-76
2023/05/11 01:41:40;;;;;;;;;;;;;;;21.43;30.29;98456.63;5014117;28;999;-75
2023/05/11 01:44:08;;;;;;;;;;;;;;;21.51;30.12;98458.13;5013799;28;1014;-75
2023/05/11 01:46:34;;;;;;;;;;;;;;;21.30;30.54;98454.44;5013928;28;1137;-75
2023/05/11 01:49:00;;;;;;;;;;;;;;;21.06;31.15;98456.44;5013657;28;1184;-75
2023/05/11 01:51:26;;;;;;;;;;;;;;;21.81;29.88;98446.59;5013820;28;1363;-75
2023/05/11 01:53:52;;;;;;;;;;;;;;;21.94;29.61;98457.25;5016369;28;1114;-75
2023/05/11 01:56:19;;;;;;;;;;;;;;;22.35;29.14;98454.75;5017049;28;954;-75
2023/05/11 01:58:46;;;;;;;;;;;;;;;22.02;29.32;98447.34;5017193;28;1154;-76
2023/05/11 02:01:12;;;;;;;;;;;;;;;21.55;29.73;98456.00;5085961;28;1914;-76
2023/05/11 02:03:37;;;;;;;;;;;;;;;21.20;30.59;98455.41;5076728;28;951;-76
2023/05/11 02:06:03;;;;;;;;;;;;;;;21.59;30.21;98448.22;5076756;28;1135;-75
2023/05/11 02:08:30;;;;;;;;;;;;;;;21.99;29.81;98442.59;5076311;28;1253;-76
2023/05/11 02:10:56;;;;;;;;;;;;;;;22.35;29.16;98451.94;5078789;28;1101;-76
2023/05/11 02:13:22;;;;;;;;;;;;;;;21.74;29.77;98454.41;5080714;28;1212;-75
2023/05/11 02:15:49;;;;;;;;;;;;;;;21.58;29.76;98463.63;5080788;28;1106;-76
2023/05/11 02:18:15;;;;;;;;;;;;;;;21.36;30.13;98456.78;5080478;28;1267;-75
2023/05/11 02:20:42;;;;;;;;;;;;;;;21.43;30.22;98451.78;5060537;28;1914;-76
2023/05/11 02:23:07;;;;;;;;;;;;;;;21.47;30.10;98448.88;5043696;28;1265;-75
2023/05/11 02:25:33;;;;;;;;;;;;;;;21.46;30.26;98452.94;5043573;28;967;-76
2023/05/11 02:27:59;;;;;;;;;;;;;;;21.43;30.40;98439.66;5060275;28;954;-76
2023/05/11 02:30:25;;;;;;;;;;;;;;;21.88;30.09;98437.13;5077045;28;1074;-76
2023/05/11 02:32:51;;;;;;;;;;;;;;;22.41;29.25;98440.06;5043549;28;1217;-76
2023/05/11 02:35:24;;;;;;;;;;;;;;;22.79;28.53;98441.16;5060492;28;948;-75
2023/05/11 02:37:52;;;;;;;;;;;;;;;21.98;29.21;98435.31;5056108;28;1329;-76
2023/05/11 02:40:18;;;;;;;;;;;;;;;21.55;30.19;98450.31;5056871;28;1902;-76
2023/05/11 02:42:47;;;;;;;;;;;;;;;21.68;29.58;98445.63;5036084;28;1302;-75
2023/05/11 02:45:13;;;;;;;;;;;;;;;21.64;29.60;98444.91;5020318;28;1244;-75
2023/05/11 02:47:42;;;;;;;;;;;;;;;21.70;30.04;98437.50;5020120;28;1070;-75
2023/05/11 02:50:09;;;;;;;;;;;;;;;21.41;30.43;98444.97;5019862;28;1472;-76
2023/05/11 02:52:40;;;;;;;;;;;;;;;21.50;30.19;98450.84;5089649;28;1120;-76
2023/05/11 02:55:06;;;;;;;;;;;;;;;21.32;30.64;98440.66;5056497;28;1074;-75
2023/05/11 02:57:32;;;;;;;;;;;;;;;21.35;30.67;98441.00;5036522;28;1587;-76
2023/05/11 03:00:02;;;;;;;;;;;;;;;21.60;30.00;98438.50;5019356;28;1926;-75
2023/05/11 03:02:28;;;;;;;;;;;;;;;21.70;29.99;98440.31;5036229;28;1032;-75
2023/05/11 03:04:53;;;;;;;;;;;;;;;21.29;30.58;98446.34;5019687;28;1157;-77
2023/05/11 03:07:19;;;;;;;;;;;;;;;21.85;30.18;98450.13;5003184;28;1181;-75
2023/05/11 03:09:45;;;;;;;;;;;;;;;22.31;29.39;98448.38;5019546;28;960;-76
2023/05/11 03:12:11;;;;;;;;;;;;;;;22.43;28.95;98449.72;5019218;28;1120;-75
2023/05/11 03:14:36;;;;;;;;;;;;;;;22.07;29.47;98449.69;5019597;28;1143;-75
2023/05/11 03:17:02;;;;;;;;;;;;;;;21.89;29.42;98455.72;5019670;28;1149;-76
2023/05/11 03:19:28;;;;;;;;;;;;;;;21.46;30.05;98455.78;5014178;28;1898;-76
2023/05/11 03:21:55;;;;;;;;;;;;;;;21.48;30.26;98461.81;4998905;28;1171;-76
2023/05/11 03:24:20;;;;;;;;;;;;;;;21.41;30.65;98476.09;4999663;28;1036;-76
2023/05/11 03:26:46;;;;;;;;;;;;;;;21.53;30.39;98464.13;4983560;28;1106;-75
2023/05/11 03:29:12;;;;;;;;;;;;;;;22.16;29.86;98464.09;4983406;28;1218;-76
2023/05/11 03:31:38;;;;;;;;;;;;;;;22.49;29.25;98465.00;4986031;28;1372;-76
2023/05/11 03:34:03;;;;;;;;;;;;;;;22.18;29.44;98463.69;5024782;28;1122;-76
2023/05/11 03:36:33;;;;;;;;;;;;;;;21.78;29.78;98461.63;5060924;28;1254;-76
2023/05/11 03:38:59;;;;;;;;;;;;;;;21.84;29.53;98471.19;5058692;28;1902;-75
2023/05/11 03:41:30;;;;;;;;;;;;;;;21.41;30.42;98470.44;5058833;28;1074;-76
2023/05/11 03:43:56;;;;;;;;;;;;;;;21.68;29.89;98471.13;5058586;28;1145;-76
2023/05/11 03:46:21;;;;;;;;;;;;;;;21.47;30.55;98468.69;5042638;28;1140;-76
2023/05/11 03:48:47;;;;;;;;;;;;;;;21.29;30.61;98469.78;5075329;28;1100;-76
2023/05/11 03:51:17;;;;;;;;;;;;;;;21.54;30.33;98475.00;5058724;28;1166;-76
2023/05/11 03:53:42;;;;;;;;;;;;;;;21.12;31.22;98482.22;5034941;28;1024;-75
2023/05/11 03:56:08;;;;;;;;;;;;;;;21.76;30.28;98481.09;5002547;28;1178;-75
2023/05/11 03:58:37;;;;;;;;;;;;;;;22.04;29.71;98473.25;5002481;28;1163;-76
2023/05/11 04:01:03;;;;;;;;;;;;;;;22.36;29.40;98467.69;5018712;28;1981;-76
2023/05/11 04:03:28;;;;;;;;;;;;;;;21.70;29.95;98477.13;5018634;28;1016;-76
2023/05/11 04:05:54;;;;;;;;;;;;;;;21.74;29.96;98483.53;5002476;28;1227;-75
2023/05/11 04:08:20;;;;;;;;;;;;;;;21.69;29.83;98481.22;4985805;28;1196;-76
2023/05/11 04:10:45;;;;;;;;;;;;;;;21.50;30.05;98487.63;5035049;28;1115;-75
2023/05/11 04:13:11;;;;;;;;;;;;;;;21.82;30.17;98493.50;5021599;28;1632;-77
2023/05/11 04:15:37;;;;;;;;;;;;;;;22.16;29.72;98486.75;5042587;28;1228;-76
2023/05/11 04:18:02;;;;;;;;;;;;;;;22.09;29.71;98493.38;5022057;28;972;-75
2023/05/11 04:20:28;;;;;;;;;;;;;;;21.82;30.13;98485.00;5038269;28;1898;-76
2023/05/11 04:22:54;;;;;;;;;;;;;;;21.67;29.97;98488.56;5021654;28;975;-76
2023/05/11 04:25:19;;;;;;;;;;;;;;;21.48;29.98;98493.75;5049304;28;1148;-75
2023/05/11 04:27:45;;;;;;;;;;;;;;;21.48;29.96;98487.28;5059119;28;945;-76
2023/05/11 04:30:11;;;;;;;;;;;;;;;21.44;30.26;98492.22;5042579;28;1435;-75
2023/05/11 04:32:36;;;;;;;;;;;;;;;21.46;30.15;98484.88;5077596;28;1163;-75
2023/05/11 04:35:02;;;;;;;;;;;;;;;21.32;30.76;98497.25;5077639;28;1219;-75
2023/05/11 04:37:32;;;;;;;;;;;;;;;21.39;30.54;98496.31;5041670;28;1257;-75
2023/05/11 04:39:59;;;;;;;;;;;;;;;21.93;30.04;98506.66;5037148;28;1987;-76
2023/05/11 04:42:25;;;;;;;;;;;;;;;22.37;29.39;98496.84;4998081;28;1457;-75
2023/05/11 04:44:53;;;;;;;;;;;;;;;22.36;29.36;98501.72;4998276;28;984;-75
2023/05/11 04:47:20;;;;;;;;;;;;;;;22.42;29.28;98498.38;4998229;28;1108;-76
2023/05/11 04:49:46;;;;;;;;;;;;;;;22.19;29.27;98500.06;4998082;28;1530;-75
2023/05/11 04:52:12;;;;;;;;;;;;;;;21.95;29.82;98507.03;4998050;28;1123;-76
2023/05/11 04:54:39;;;;;;;;;;;;;;;21.64;30.17;98515.69;4998153;28;1270;-75
2023/05/11 04:57:04;;;;;;;;;;;;;;;21.59;29.89;98522.66;4994556;28;1155;-76
2023/05/11 04:59:30;;;;;;;;;;;;;;;21.48;30.17;98518.44;4978645;28;1923;-75
2023/05/11 05:01:56;;;;;;;;;;;;;;;21.58;30.13;98508.94;4955542;28;1042;-75
2023/05/11 05:04:22;;;;;;;;;;;;;;;21.66;30.01;98516.09;4924304;29;1112;-77
2023/05/11 05:06:48;;;;;;;;;;;;;;;21.69;30.33;98520.88;4936865;29;1107;-75
2023/05/11 05:09:14;;;;;;;;;;;;;;;21.71;30.06;98524.06;4920620;29;1097;-76
2023/05/11 05:11:40;;;;;;;;;;;;;;;21.54;30.35;98528.03;4986346;28;1465;-76
2023/05/11 05:14:06;;;;;;;;;;;;;;;21.54;30.59;98531.66;5013209;28;969;-76
2023/05/11 05:16:31;;;;;;;;;;;;;;;22.24;29.64;98521.44;5034142;28;954;-77
2023/05/11 05:18:57;;;;;;;;;;;;;;;22.35;29.29;98533.34;5017285;28;1003;-76
2023/05/11 05:21:23;;;;;;;;;;;;;;;21.87;30.00;98534.69;5000874;28;1910;-75
2023/05/11 05:23:49;;;;;;;;;;;;;;;22.03;29.84;98534.00;5000888;28;997;-75
2023/05/11 05:26:14;;;;;;;;;;;;;;;21.57;30.25;98535.66;5033932;28;1051;-76
2023/05/11 05:28:40;;;;;;;;;;;;;;;21.53;29.97;98534.91;5000798;28;1331;-75
2023/05/11 05:31:06;;;;;;;;;;;;;;;21.61;29.98;98542.06;5000750;28;1162;-76
2023/05/11 05:33:32;;;;;;;;;;;;;;;21.59;30.35;98538.84;5047225;28;1111;-76
2023/05/11 05:35:58;;;;;;;;;;;;;;;21.32;30.78;98530.44;5056965;28;1242;-76
2023/05/11 05:38:24;;;;;;;;;;;;;;;21.32;30.83;98536.88;5040496;28;1172;-76
2023/05/11 05:40:50;;;;;;;;;;;;;;;21.09;31.25;98539.69;5056741;28;1949;-76
2023/05/11 05:43:16;;;;;;;;;;;;;;;21.35;30.60;98540.06;5056717;28;1267;-75
2023/05/11 05:45:42;;;;;;;;;;;;;;;21.26;30.75;98538.59;5041727;28;1194;-75
2023/05/11 05:48:08;;;;;;;;;;;;;;;22.06;30.17;98550.09;5054439;28;1582;-76
2023/05/11 05:50:34;;;;;;;;;;;;;;;22.45;29.30;98548.53;5038320;28;1290;-75
2023/05/11 05:53:00;;;;;;;;;;;;;;;22.26;29.57;98553.78;5054603;28;1164;-76
2023/05/11 05:55:27;;;;;;;;;;;;;;;22.01;29.81;98556.28;5055790;28;1197;-76
2023/05/11 05:57:55;;;;;;;;;;;;;;;21.40;30.79;98559.41;5054478;28;1256;-76
2023/05/11 06:00:21;;;;;;;;;;;;;;;21.54;30.45;98548.63;5037908;28;1902;-75
2023/05/11 06:02:54;;;;;;;;;;;;;;;21.57;30.20;98552.66;5054252;28;1311;-76
2023/05/11 06:05:24;;;;;;;;;;;;;;;21.69;30.32;98554.84;5022680;28;1302;-75
2023/05/11 06:07:50;;;;;;;;;;;;;;;21.68;30.03;98558.91;5038224;28;1134;-75
2023/05/11 06:10:16;;;;;;;;;;;;;;;21.39;30.78;98552.16;5038052;28;1185;-75
2023/05/11 06:12:44;;;;;;;;;;;;;;;21.40;30.50;98557.41;5037801;28;1400;-76
2023/05/11 06:15:10;;;;;;;;;;;;;;;21.39;30.42;98569.13;5055748;28;1148;-75
2023/05/11 06:17:39;;;;;;;;;;;;;;;21.46;30.68;98567.00;5037429;28;1153;-75
2023/05/11 06:20:06;;;;;;;;;;;;;;;21.81;30.47;98565.56;5054423;28;1909;-75
2023/05/11 06:22:31;;;;;;;;;;;;;;;22.27;29.76;98585.75;5038049;28;1109;-75
2023/05/11 06:24:57;;;;;;;;;;;;;;;22.32;29.56;98573.91;5054226;28;1336;-76
2023/05/11 06:27:24;;;;;;;;;;;;;;;21.96;29.96;98568.13;5036238;28;1238;-76
2023/05/11 06:29:54;;;;;;;;;;;;;;;21.85;30.10;98563.44;5036814;28;1262;-75
2023/05/11 06:32:20;;;;;;;;;;;;;;;21.46;30.55;98569.03;5037447;28;1065;-75
2023/05/11 06:34:46;;;;;;;;;;;;;;;21.31;30.71;98571.28;5029639;28;1326;-75
2023/05/11 06:37:19;;;;;;;;;;;;;;;21.49;30.54;98573.81;5013166;28;1482;-76
2023/05/11 06:39:47;;;;;;;;;;;;;;;21.44;30.80;98575.09;5012401;28;1902;-76
2023/05/11 06:42:12;;;;;;;;;;;;;;;21.27;30.75;98562.81;5012893;28;1201;-75
2023/05/11 06:44:40;;;;;;;;;;;;;;;21.40;30.58;98565.91;5013098;28;1333;-76
2023/05/11 06:47:06;;;;;;;;;;;;;;;22.03;30.13;98570.81;5013236;28;1521;-75
2023/05/11 06:49:31;;;;;;;;;;;;;;;22.09;30.20;98560.59;5013301;28;1079;-75
2023/05/11 06:51:57;;;;;;;;;;;;;;;22.01;30.01;98564.78;5013384;28;1087;-76
2023/05/11 06:54:23;;;;;;;;;;;;;;;21.61;30.41;98561.88;5033280;28;1209;-76
2023/05/11 06:56:48;;;;;;;;;;;;;;;21.25;30.99;98568.13;5051029;28;1009;-76
2023/05/11 06:59:14;;;;;;;;;;;;;;;21.33;30.83;98566.78;5053406;28;1981;-75
2023/05/11 07:01:39;;;;;;;;;;;;;;;21.33;30.54;98566.78;5073200;28;1018;-75
2023/05/11 07:04:05;;;;;;;;;;;;;;;21.81;30.44;98568.41;5039675;28;1318;-75
2023/05/11 07:06:32;;;;;;;;;;;;;;;22.14;30.13;98576.31;5055904;28;978;-76
2023/05/11 07:08:57;;;;;;;;;;;;;;;21.74;30.48;98574.19;5056640;28;1241;-76
2023/05/11 07:11:24;;;;;;;;;;;;;;;21.80;30.35;98578.09;5052716;28;948;-76
2023/05/11 07:13:49;;;;;;;;;;;;;;;21.54;30.31;98573.31;5019166;28;1065;-76
2023/05/11 07:16:15;;;;;;;;;;;;;;;21.60;30.37;98580.09;5019372;28;972;-76
2023/05/11 07:18:40;;;;;;;;;;;;;;;21.76;29.82;98574.56;5036071;28;1064;-76
2023/05/11 07:21:06;;;;;;;;;;;;;;;21.50;30.37;98575.41;5019602;28;1997;-76
2023/05/11 07:23:31;;;;;;;;;;;;;;;21.49;30.47;98585.13;5036013;28;947;-75
2023/05/11 07:25:57;;;;;;;;;;;;;;;21.38;30.48;98590.19;5036177;28;1052;-75
2023/05/11 07:28:22;;;;;;;;;;;;;;;21.42;30.61;98596.59;5015724;28;981;-75
2023/05/11 07:30:48;;;;;;;;;;;;;;;22.21;29.95;98596.81;4997963;28;1252;-76
2023/05/11 07:33:13;;;;;;;;;;;;;;;22.17;30.10;98596.06;4980231;28;1136;-76
2023/05/11 07:35:39;;;;;;;;;;;;;;;21.98;30.08;98596.81;4996507;28;978;-75
2023/05/11 07:38:06;;;;;;;;;;;;;;;21.90;30.07;98601.81;4980022;28;974;-75
2023/05/11 07:40:32;;;;;;;;;;;;;;;21.48;30.40;98607.00;4980472;28;1975;-75
2023/05/11 07:42:58;;;;;;;;;;;;;;;21.38;30.45;98599.47;4967716;28;1493;-76
2023/05/11 07:45:23;;;;;;;;;;;;;;;21.51;30.67;98597.66;5019005;28;1211;-75
2023/05/11 07:47:49;;;;;;;;;;;;;;;21.45;30.71;98601.38;5019107;28;1008;-76
2023/05/11 07:50:14;;;;;;;;;;;;;;;21.44;30.27;98606.25;5018788;28;933;-76
2023/05/11 07:52:40;;;;;;;;;;;;;;;21.52;30.46;98590.75;5019355;28;1320;-75
2023/05/11 07:55:06;;;;;;;;;;;;;;;21.91;30.41;98594.13;5035397;28;926;-76
2023/05/11 07:57:31;;;;;;;;;;;;;;;22.13;29.76;98595.34;5018776;28;988;-76
2023/05/11 07:59:57;;;;;;;;;;;;;;;21.95;30.12;98594.84;5046209;28;1982;-76
2023/05/11 08:02:22;;;;;;;;;;;;;;;21.50;30.88;98606.56;5057767;28;942;-75
2023/05/11 08:04:48;;;;;;;;;;;;;;;21.59;30.34;98601.94;5057728;28;939;-76
2023/05/11 08:07:13;;;;;;;;;;;;;;;21.41;30.70;98606.31;5039425;28;983;-76
2023/05/11 08:09:39;;;;;;;;;;;;;;;21.46;30.46;98594.50;5039151;28;1156;-76
2023/05/11 08:12:04;;;;;;;;;;;;;;;21.30;30.61;98601.63;5057327;28;1264;-76
2023/05/11 08:14:31;;;;;;;;;;;;;;;21.44;30.70;98611.09;5056113;28;871;-75
2023/05/11 08:16:56;;;;;;;;;;;;;;;21.64;30.45;98608.34;5039318;28;997;-76
2023/05/11 08:19:22;;;;;;;;;;;;;;;21.46;30.40;98620.00;5039602;28;1910;-76
2023/05/11 08:21:47;;;;;;;;;;;;;;;21.37;30.73;98622.56;5056351;28;841;-76
2023/05/11 08:24:14;;;;;;;;;;;;;;;21.65;30.93;98605.09;5057624;28;1020;-76
2023/05/11 08:26:40;;;;;;;;;;;;;;;22.18;29.96;98613.91;5040229;28;970;-76
2023/05/11 08:29:06;;;;;;;;;;;;;;;22.27;29.47;98612.06;5056147;28;1000;-76
2023/05/11 08:31:31;;;;;;;;;;;;;;;22.05;29.63;98616.53;5056222;28;1008;-76
2023/05/11 08:33:57;;;;;;;;;;;;;;;21.64;30.42;98603.50;5057453;28;1057;-76
2023/05/11 08:36:22;;;;;;;;;;;;;;;21.83;29.83;98608.41;5039519;28;1310;-76
2023/05/11 08:38:48;;;;;;;;;;;;;;;21.52;30.42;98601.28;5055851;28;999;-76
2023/05/11 08:41:13;;;;;;;;;;;;;;;21.55;30.24;98617.38;5055828;28;1910;-75
2023/05/11 08:43:39;;;;;;;;;;;;;;;21.57;30.43;98610.09;5055940;28;1342;-76
2023/05/11 08:46:07;;;;;;;;;;;;;;;21.84;30.27;98598.69;5039399;28;911;-75
2023/05/11 08:48:32;;;;;;;;;;;;;;;22.13;30.03;98601.03;5022837;28;1675;-76
2023/05/11 08:50:58;;;;;;;;;;;;;;;22.10;29.53;98596.19;5039521;28;1170;-75
2023/05/11 08:53:23;;;;;;;;;;;;;;;21.94;29.86;98594.06;5055885;28;1108;-76
2023/05/11 08:55:49;;;;;;;;;;;;;;;21.81;30.07;98588.22;5055731;28;988;-77
2023/05/11 08:58:18;;;;;;;;;;;;;;;21.58;30.41;98591.06;5038928;28;961;-75
2023/05/11 09:00:44;;;;;;;;;;;;;;;21.36;30.78;98592.66;5055845;28;1976;-76
2023/05/11 09:03:09;;;;;;;;;;;;;;;21.32;30.74;98593.50;5055445;28;929;-75
2023/05/11 09:05:35;;;;;;;;;;;;;;;21.43;30.35;98586.88;5055269;28;982;-76
2023/05/11 09:08:03;;;;;;;;;;;;;;;21.51;30.50;98582.69;5055206;28;923;-76
2023/05/11 09:10:29;;;;;;;;;;;;;;;21.52;30.29;98589.97;5055395;28;956;-76
2023/05/11 09:12:55;;;;;;;;;;;;;;;21.27;31.02;98582.63;5055332;28;1032;-76
2023/05/11 09:15:20;;;;;;;;;;;;;;;22.19;29.88;98578.66;5056841;28;944;-76
2023/05/11 09:17:46;;;;;;;;;;;;;;;22.09;29.74;98572.72;5056619;28;861;-76
2023/05/11 09:20:11;;;;;;;;;;;;;;;22.31;29.52;98573.09;5054059;28;1902;-76
2023/05/11 09:22:41;;;;;;;;;;;;;;;22.04;29.70;98569.59;5055296;28;969;-76
2023/05/11 09:25:07;;;;;;;;;;;;;;;21.60;30.49;98563.09;5055305;28;1011;-76
2023/05/11 09:27:33;;;;;;;;;;;;;;;21.37;30.78;98571.59;5052430;28;1148;-76
2023/05/11 09:30:08;;;;;;;;;;;;;;;21.47;30.49;98564.97;5057321;28;1022;-76
2023/05/11 09:32:45;;;;;;;;;;;;;;;21.52;30.38;98572.97;5057670;28;901;-75
2023/05/11 09:35:17;;;;;;;;;;;;;;;21.50;30.33;98569.75;5057590;28;978;-76
2023/05/11 09:37:43;;;;;;;;;;;;;;;21.82;30.26;98570.00;5057121;28;994;-76
2023/05/11 09:40:09;;;;;;;;;;;;;;;22.21;30.00;98562.78;5056821;28;1918;-76
2023/05/11 09:42:35;;;;;;;;;;;;;;;22.26;29.56;98562.28;5057665;28;1322;-76
2023/05/11 09:45:00;;;;;;;;;;;;;;;21.73;30.31;98558.41;5057066;28;1179;-76
2023/05/11 09:47:26;;;;;;;;;;;;;;;21.69;30.22;98560.50;5057227;28;1300;-75
2023/05/11 09:49:51;;;;;;;;;;;;;;;21.02;30.37;98467.03;5073378;28;992;-75
2023/05/11 09:52:17;;;;;;;;;;;;;;;21.38;30.65;98567.53;5057671;28;1106;-76
2023/05/11 09:54:43;;;;;;;;;;;;;;;21.68;30.10;98570.25;5040404;28;1214;-76
2023/05/11 09:57:21;;;;;;;;;;;;;;;21.67;29.99;98568.66;5057422;28;984;-76
2023/05/11 09:59:47;;;;;;;;;;;;;;;21.56;30.14;98565.22;5039859;28;1985;-76
2023/05/11 10:02:22;;;;;;;;;;;;;;;21.74;30.22;98560.00;5036685;28;1003;-76
2023/05/11 10:04:51;;;;;;;;;;;;;;;22.47;29.47;98561.03;5036820;28;1116;-75
2023/05/11 10:07:22;;;;;;;;;;;;;;;22.71;28.97;98563.78;5037117;28;908;-75
2023/05/11 10:09:49;;;;;;;;;;;;;;;22.20;29.56;98566.88;5020669;28;1125;-76
2023/05/11 10:12:15;;;;;;;;;;;;;;;22.12;29.45;98564.59;5036652;28;1074;-76
2023/05/11 10:14:40;;;;;;;;;;;;;;;21.39;30.66;98569.13;5036822;28;941;-76
2023/05/11 10:17:06;;;;;;;;;;;;;;;21.43;30.39;98570.69;5035355;28;2105;-76
2023/05/11 10:19:31;;;;;;;;;;;;;;;21.74;30.14;98564.88;5056610;28;1902;-76
2023/05/11 10:21:57;;;;;;;;;;;;;;;21.57;30.51;98566.81;5056633;28;1026;-75
2023/05/11 10:24:23;;;;;;;;;;;;;;;21.48;30.61;98561.69;5056888;28;1490;-76
2023/05/11 10:26:49;;;;;;;;;;;;;;;21.63;30.11;98564.28;5057017;28;970;-75
2023/05/11 10:29:14;;;;;;;;;;;;;;;21.03;31.26;98561.97;5040138;28;1185;-76
2023/05/11 10:31:40;;;;;;;;;;;;;;;21.58;30.58;98554.25;5058175;28;1317;-76
2023/05/11 10:34:06;;;;;;;;;;;;;;;22.25;29.95;98557.84;5075434;28;935;-75
2023/05/11 10:36:32;;;;;;;;;;;;;;;22.29;29.62;98552.91;5095386;28;1109;-75
2023/05/11 10:38:57;;;;;;;;;;;;;;;22.04;29.66;98563.91;5094907;28;1005;-75
2023/05/11 10:41:41;;;;;;;;;;;;;;;21.55;30.44;98560.75;5095150;28;1980;-75
2023/05/11 10:44:07;;;;;;;;;;;;;;;21.31;30.81;98546.63;5078809;28;898;-75
2023/05/11 10:46:41;;;;;;;;;;;;;;;21.49;30.41;98551.16;5096251;28;952;-74
2023/05/11 10:49:07;;;;;;;;;;;;;;;21.39;30.50;98557.81;5097084;28;970;-75
2023/05/11 10:51:54;;;;;;;;;;;;;;;21.31;30.71;98557.94;5097066;28;1077;-73
2023/05/11 10:54:29;;;;;;;;;;;;;;;21.18;31.00;98559.72;5093528;28;1081;-76
2023/05/11 10:57:00;;;;;;;;;;;;;;;21.38;30.70;98547.72;5059615;28;1014;-76
2023/05/11 10:59:32;;;;;;;;;;;;;;;22.09;30.35;98552.88;5076917;28;1902;-75
2023/05/11 11:02:00;;;;;;;;;;;;;;;22.41;29.52;98559.16;5076247;28;1067;-75
2023/05/11 11:04:28;;;;;;;;;;;;;;;21.67;30.71;98546.00;5027225;28;1124;-75
2023/05/11 11:07:03;;;;;;;;;;;;;;;21.47;30.66;98553.63;5057072;28;968;-76
2023/05/11 11:09:28;;;;;;;;;;;;;;;21.65;30.27;98565.44;5060038;28;1170;-76
2023/05/11 11:11:54;;;;;;;;;;;;;;;21.70;30.43;98556.44;5073848;28;1142;-75
2023/05/11 11:14:20;;;;;;;;;;;;;;;21.46;30.50;98560.53;5073394;28;1007;-76
2023/05/11 11:17:04;;;;;;;;;;;;;;;21.26;31.13;98555.56;5039703;28;1117;-75
2023/05/11 11:19:29;;;;;;;;;;;;;;;21.32;30.99;98559.53;5039376;28;1910;-76
2023/05/11 11:21:58;;;;;;;;;;;;;;;21.74;30.44;98562.84;5056442;28;1069;-75
2023/05/11 11:24:35;;;;;;;;;;;;;;;22.40;29.92;98560.41;5039691;28;1014;-76
2023/05/11 11:27:01;;;;;;;;;;;;;;;22.45;29.47;98565.56;5039409;28;1072;-76
2023/05/11 11:29:27;;;;;;;;;;;;;;;22.08;30.01;98553.31;5039310;28;1348;-76
2023/05/11 11:31:52;;;;;;;;;;;;;;;21.56;30.93;98551.06;5084185;28;974;-76
2023/05/11 11:34:27;;;;;;;;;;;;;;;21.37;30.87;98549.75;5093753;28;861;-76
2023/05/11 11:37:05;;;;;;;;;;;;;;;21.49;30.74;98556.81;5060807;28;1119;-76
2023/05/11 11:39:40;;;;;;;;;;;;;;;21.71;30.08;98543.06;5077926;28;1906;-76
2023/05/11 11:42:06;;;;;;;;;;;;;;;21.64;30.42;98552.50;5060060;28;906;-76
2023/05/11 11:44:35;;;;;;;;;;;;;;;21.39;30.69;98546.50;5075972;28;1136;-76
2023/05/11 11:47:10;;;;;;;;;;;;;;;21.43;30.74;98555.72;5111160;28;879;-76
2023/05/11 11:49:36;;;;;;;;;;;;;;;21.46;30.60;98549.22;5078039;28;851;-76
2023/05/11 11:52:02;;;;;;;;;;;;;;;21.99;30.41;98545.38;5093606;28;1198;-76
2023/05/11 11:54:38;;;;;;;;;;;;;;;22.54;29.76;98548.75;5093442;28;1105;-76
2023/05/11 11:57:04;;;;;;;;;;;;;;;22.74;28.97;98543.84;5076479;28;1277;-77
2023/05/11 11:59:29;;;;;;;;;;;;;;;21.97;30.04;98542.19;5093439;28;1906;-76
2023/05/11 12:01:55;;;;;;;;;;;;;;;21.65;30.58;98531.44;5078310;28;1009;-76
2023/05/11 12:04:25;;;;;;;;;;;;;;;21.63;30.62;98539.59;5110322;28;859;-76
2023/05/11 12:06:54;;;;;;;;;;;;;;;21.56;30.50;98540.53;5093542;28;1212;-76
2023/05/11 12:09:20;;;;;;;;;;;;;;;21.55;30.46;98543.78;5110430;28;993;-75
2023/05/11 12:11:46;;;;;;;;;;;;;;;21.35;31.04;98545.75;5076120;28;1195;-76
2023/05/11 12:14:12;;;;;;;;;;;;;;;21.45;30.82;98544.75;5110261;28;979;-75
2023/05/11 12:16:37;;;;;;;;;;;;;;;21.49;30.82;98545.50;5093070;28;934;-75
2023/05/11 12:19:03;;;;;;;;;;;;;;;21.47;30.52;98534.63;5076750;28;914;-76
2023/05/11 12:21:30;;;;;;;;;;;;;;;21.95;30.60;98543.84;5110204;28;1976;-76
2023/05/11 12:23:56;;;;;;;;;;;;;;;22.36;29.90;98535.75;5109675;28;845;-76
2023/05/11 12:26:22;;;;;;;;;;;;;;;22.54;29.46;98528.91;5093263;28;962;-76
2023/05/11 12:28:50;;;;;;;;;;;;;;;21.88;30.18;98538.34;5093025;28;901;-76
2023/05/11 12:31:16;;;;;;;;;;;;;;;21.68;30.45;98533.44;5092682;28;1188;-75
2023/05/11 12:33:48;;;;;;;;;;;;;;;21.58;30.41;98534.44;5092885;28;1070;-76
2023/05/11 12:36:15;;;;;;;;;;;;;;;21.43;30.46;98530.25;5075587;28;1114;-76
2023/05/11 12:38:43;;;;;;;;;;;;;;;21.41;30.59;98521.41;5092626;28;872;-76
2023/05/11 12:41:10;;;;;;;;;;;;;;;21.14;31.32;98525.06;5077161;28;1975;-75
2023/05/11 12:43:35;;;;;;;;;;;;;;;22.06;30.29;98533.09;5075546;28;1161;-76
2023/05/11 12:46:01;;;;;;;;;;;;;;;22.56;29.39;98517.91;5098450;28;1196;-76
2023/05/11 12:48:26;;;;;;;;;;;;;;;22.40;29.65;98518.66;5098281;28;977;-76
2023/05/11 12:50:52;;;;;;;;;;;;;;;21.88;30.32;98505.13;5115459;28;959;-75
2023/05/11 12:53:18;;;;;;;;;;;;;;;21.74;30.28;98506.19;5097919;28;1130;-76
2023/05/11 12:55:43;;;;;;;;;;;;;;;21.67;30.08;98506.34;5098149;28;931;-75
2023/05/11 12:58:10;;;;;;;;;;;;;;;21.56;30.61;98500.09;5098133;28;935;-76